Terminal Aerodrome Forecast
Issued by NWS

Home | Current Version | Previous Version | Graphics & Text | Print | Product List | Glossary On
Versions: 1 2 3 4 5 6 7 8 9 10 11 12 13 14 15 16
678
FTUS43 KMPX 192340
TAFAXN
TAF
KAXN 192340Z 2000/2024 08010KT P6SM OVC090
     FM201300 08008KT P6SM OVC050
     FM201600 07012G20KT 6SM -RA BR SCT020 OVC040
     FM201900 06013G21KT 4SM RA BR SCT008 OVC014
     FM202200 05010G19KT 3SM RA BR OVC007=

USA.gov is the U.S. government's official web portal to all federal, state and local government web resources and services.